Byron, Oklahoma
Current Conditions -  °F | °C
As of 7:35 PM on Friday 19 Dec 2014 (Local Time) from KAVK Reporting Station
Overcast Overcast  
Wind Chill: 34°   Ceiling: 2300
Heat Index: 39°   Visibility: 9mi
Dew Point: 37°   Wind: 8mph
Humidity: 93%   Direction: 170°S
Pressure: 30.19"   Gusts: NA
Location:  36.916°N, 98.4369°W
Report Text: KAVK 200135Z AUTO 17007KT 9SM OVC023 04/03 A3019 RMK AO2
Loading
Personal Weather Stations






























Interactive Weather Map New forecast layout! Learn more

10-Day Weather Forecast

Advertisements
Track Severe Weather on mobile